createdAt,value
2023-05-10T00:02:25.459Z,99741.03
2023-05-10T00:04:52.135Z,99748.16
2023-05-10T00:07:18.563Z,99744.63
2023-05-10T00:09:44.971Z,99747.31
2023-05-10T00:12:11.315Z,99748.19
2023-05-10T00:14:37.628Z,99749.06
2023-05-10T00:17:03.937Z,99747.34
2023-05-10T00:19:30.302Z,99756.19
2023-05-10T00:21:56.740Z,99751.72
2023-05-10T00:24:23.037Z,99757.97
2023-05-10T00:26:49.373Z,99746.47
2023-05-10T00:29:15.731Z,99763.28
2023-05-10T00:31:42.091Z,99755.31
2023-05-10T00:34:08.418Z,99757.06
2023-05-10T00:36:34.775Z,99752.66
2023-05-10T00:39:01.459Z,99756.19
2023-05-10T00:41:27.879Z,99758.78
2023-05-10T00:43:54.169Z,99759.69
2023-05-10T00:46:20.561Z,99764.16
2023-05-10T00:48:47.055Z,99766.81
2023-05-10T00:51:14.392Z,99761.53
2023-05-10T00:53:41.505Z,99764.19
2023-05-10T00:56:08.004Z,99769.53
2023-05-10T00:58:34.613Z,99765.13
2023-05-10T01:01:02.247Z,99765.09
2023-05-10T01:03:28.962Z,99765.13
2023-05-10T01:05:55.878Z,99759.81
2023-05-10T01:08:22.613Z,99753.63
2023-05-10T01:10:50.118Z,99743.03
2023-05-10T01:13:31.290Z,99758.06
2023-05-10T01:15:58.586Z,99767.78
2023-05-10T01:18:25.881Z,99769.56
2023-05-10T01:21:08.528Z,99758.97
2023-05-10T01:23:58.914Z,99772.25
2023-05-10T01:26:56.089Z,99774.88
2023-05-10T01:29:49.024Z,99774.88
2023-05-10T01:32:31.532Z,99768.72
2023-05-10T01:35:06.077Z,99774.91
2023-05-10T01:37:42.845Z,99774.91
2023-05-10T01:40:42.833Z,99773.16
2023-05-10T01:43:16.763Z,99777.56
2023-05-10T01:46:11.834Z,99772.25
2023-05-10T01:48:48.028Z,99773.13
2023-05-10T01:51:20.574Z,99772.25
2023-05-10T01:53:48.726Z,99779.34
2023-05-10T01:56:16.067Z,99782.00
2023-05-10T01:58:46.487Z,99781.13
2023-05-10T02:01:14.135Z,99781.09
2023-05-10T02:03:43.752Z,99788.19
2023-05-10T02:06:13.579Z,99779.34
2023-05-10T02:08:41.642Z,99790.84
2023-05-10T02:11:09.801Z,99800.59
2023-05-10T02:13:40.190Z,99801.50
2023-05-10T02:16:08.235Z,99807.69
2023-05-10T02:18:36.804Z,99799.72
2023-05-10T02:21:03.890Z,99799.72
2023-05-10T02:23:31.297Z,99806.81
2023-05-10T02:25:58.810Z,99815.69
2023-05-10T02:28:27.795Z,99806.84
2023-05-10T02:30:55.541Z,99812.16
2023-05-10T02:33:23.035Z,99813.91
2023-05-10T02:35:51.162Z,99807.72
2023-05-10T02:38:19.865Z,99813.91
2023-05-10T02:40:47.796Z,99813.94
2023-05-10T02:43:17.273Z,99812.16
2023-05-10T02:45:45.923Z,99811.28
2023-05-10T02:48:12.312Z,99803.31
2023-05-10T02:50:43.909Z,99813.03
2023-05-10T02:53:14.617Z,99818.31
2023-05-10T02:55:43.123Z,99822.72
2023-05-10T02:58:09.525Z,99818.31
2023-05-10T03:00:37.130Z,99820.09
2023-05-10T03:03:03.771Z,99813.91
2023-05-10T03:05:30.153Z,99821.00
2023-05-10T03:07:57.026Z,99807.75
2023-05-10T03:10:28.634Z,99816.59
2023-05-10T03:13:12.034Z,99813.91
2023-05-10T03:15:47.326Z,99825.44
2023-05-10T03:18:19.711Z,99820.13
2023-05-10T03:20:51.283Z,99828.97
2023-05-10T03:23:20.571Z,99826.28
2023-05-10T03:25:49.392Z,99820.09
2023-05-10T03:28:16.770Z,99821.84
2023-05-10T03:30:44.416Z,99822.72
2023-05-10T03:33:11.658Z,99827.16
2023-05-10T03:35:37.997Z,99826.25
2023-05-10T03:38:04.311Z,99821.84
2023-05-10T03:40:32.616Z,99835.09
2023-05-10T03:42:59.753Z,99836.88
2023-05-10T03:45:26.066Z,99839.53
2023-05-10T03:47:52.440Z,99843.91
2023-05-10T03:50:19.564Z,99838.63
2023-05-10T03:52:46.226Z,99851.03
2023-05-10T03:55:12.661Z,99845.72
2023-05-10T03:57:39.090Z,99836.84
2023-05-10T04:00:06.226Z,99845.69
2023-05-10T04:02:32.727Z,99835.97
2023-05-10T04:04:59.168Z,99835.97
2023-05-10T04:07:27.993Z,99839.53
2023-05-10T04:09:54.337Z,99838.66
2023-05-10T04:12:20.860Z,99842.16
2023-05-10T04:14:47.210Z,99835.09
2023-05-10T04:17:13.648Z,99841.25
2023-05-10T04:19:40.094Z,99842.16
2023-05-10T04:22:06.402Z,99838.63
2023-05-10T04:24:32.753Z,99833.31
2023-05-10T04:26:59.168Z,99856.28
2023-05-10T04:29:25.506Z,99851.84
2023-05-10T04:31:51.932Z,99854.47
2023-05-10T04:34:18.373Z,99856.19
2023-05-10T04:36:44.730Z,99850.03
2023-05-10T04:39:11.514Z,99857.06
2023-05-10T04:41:39.044Z,99857.94
2023-05-10T04:44:05.436Z,99860.59
2023-05-10T04:46:31.770Z,99873.88
2023-05-10T04:48:58.142Z,99873.88
2023-05-10T04:51:24.503Z,99872.16
2023-05-10T04:54:01.626Z,99878.31
2023-05-10T04:56:31.328Z,99873.91
2023-05-10T04:58:57.627Z,99880.09
2023-05-10T05:01:24.121Z,99883.66
2023-05-10T05:03:50.669Z,99880.97
2023-05-10T05:06:17.069Z,99872.09
2023-05-10T05:08:43.423Z,99883.63
2023-05-10T05:11:09.719Z,99864.16
2023-05-10T05:13:36.088Z,99869.47
2023-05-10T05:16:03.640Z,99867.69
2023-05-10T05:18:30.030Z,99862.38
2023-05-10T05:20:56.340Z,99871.25
2023-05-10T05:23:25.573Z,99873.00
2023-05-10T05:25:55.327Z,99869.47
2023-05-10T05:28:21.900Z,99884.44
2023-05-10T05:30:48.394Z,99879.06
2023-05-10T05:33:17.143Z,99884.28
2023-05-10T05:35:48.401Z,99888.56
2023-05-10T05:38:15.166Z,99888.38
2023-05-10T05:40:41.509Z,99884.84
2023-05-10T05:43:07.851Z,99883.81
2023-05-10T05:45:34.243Z,99885.28
2023-05-10T05:48:00.616Z,99886.81
2023-05-10T05:50:27.074Z,99885.81
2023-05-10T05:52:53.470Z,99885.63
2023-05-10T05:55:19.932Z,99888.34
2023-05-10T05:57:46.449Z,99899.94
2023-05-10T06:00:13.426Z,99893.84
2023-05-10T06:02:40.065Z,99901.81
2023-05-10T06:05:07.099Z,99908.09
2023-05-10T06:07:33.453Z,99911.88
2023-05-10T06:09:59.932Z,99903.00
2023-05-10T06:12:26.314Z,99910.09
2023-05-10T06:14:52.648Z,99909.19
2023-05-10T06:17:19.021Z,99910.00
2023-05-10T06:19:45.363Z,99917.03
2023-05-10T06:22:11.696Z,99917.66
2023-05-10T06:24:37.997Z,99920.25
2023-05-10T06:27:04.987Z,99917.19
2023-05-10T06:29:31.285Z,99913.13
2023-05-10T06:31:57.805Z,99926.94
2023-05-10T06:34:24.288Z,99933.47
2023-05-10T06:36:50.615Z,99935.53
2023-05-10T06:39:17.061Z,99937.81
2023-05-10T06:41:43.397Z,99934.47
2023-05-10T06:44:09.817Z,99933.59
2023-05-10T06:46:36.217Z,99948.00
2023-05-10T06:49:02.664Z,99947.41
2023-05-10T06:51:29.023Z,99950.16
2023-05-10T06:53:55.433Z,99953.66
2023-05-10T06:56:22.563Z,99942.44
2023-05-10T06:58:49.366Z,99944.19
2023-05-10T07:01:16.060Z,99950.00
2023-05-10T07:03:42.488Z,99948.94
2023-05-10T07:06:15.666Z,99945.97
2023-05-10T07:08:48.370Z,99954.94
2023-05-10T07:11:14.903Z,99958.06
2023-05-10T07:13:44.925Z,99960.41
2023-05-10T07:16:11.410Z,99969.44
2023-05-10T07:18:37.921Z,99965.91
2023-05-10T07:21:04.729Z,99964.88
2023-05-10T07:23:31.318Z,99959.47
2023-05-10T07:25:58.518Z,99968.25
2023-05-10T07:28:25.168Z,99970.78
2023-05-10T07:30:51.661Z,99971.88
2023-05-10T07:33:18.162Z,99971.72
2023-05-10T07:35:44.576Z,99980.09
2023-05-10T07:38:12.006Z,99975.72
2023-05-10T07:40:39.158Z,99980.34
2023-05-10T07:43:05.608Z,99983.88
2023-05-10T07:45:31.964Z,99988.22
2023-05-10T07:47:58.424Z,99991.50
2023-05-10T07:50:24.790Z,99982.38
2023-05-10T07:52:51.206Z,99989.84
2023-05-10T07:55:19.904Z,99996.38
2023-05-10T07:57:46.207Z,99989.69
2023-05-10T08:00:14.528Z,99988.75
2023-05-10T08:02:42.074Z,99992.41
2023-05-10T08:05:09.194Z,99995.19
2023-05-10T08:07:35.629Z,99986.56
2023-05-10T08:10:02.907Z,99997.03
2023-05-10T08:12:29.275Z,99988.56
2023-05-10T08:14:55.715Z,99980.28
2023-05-10T08:17:22.819Z,99991.63
2023-05-10T08:19:50.966Z,99988.69
2023-05-10T08:22:17.380Z,99994.72
2023-05-10T08:24:43.973Z,99994.75
2023-05-10T08:27:10.340Z,99988.09
2023-05-10T08:29:49.046Z,99992.75
2023-05-10T08:32:16.687Z,99989.47
2023-05-10T08:34:43.121Z,99991.75
2023-05-10T08:37:09.619Z,99994.13
2023-05-10T08:39:36.468Z,99999.56
2023-05-10T08:42:05.698Z,100000.84
2023-05-10T08:44:35.098Z,100001.94
2023-05-10T08:47:06.265Z,100003.34
2023-05-10T08:49:33.954Z,100011.16
2023-05-10T08:52:04.938Z,100025.25
2023-05-10T08:54:32.978Z,100021.59
2023-05-10T08:56:59.438Z,100026.00
2023-05-10T08:59:26.206Z,100023.63
2023-05-10T09:01:55.790Z,100034.34
2023-05-10T09:04:22.385Z,100020.75
2023-05-10T09:06:48.910Z,100024.56
2023-05-10T09:09:16.964Z,100029.41
2023-05-10T09:11:44.271Z,100029.63
2023-05-10T09:14:11.168Z,100031.50
2023-05-10T09:16:37.505Z,100032.34
2023-05-10T09:19:04.020Z,100026.75
2023-05-10T09:21:31.989Z,100034.84
2023-05-10T09:24:03.383Z,100024.41
2023-05-10T09:26:29.745Z,100032.22
2023-05-10T09:29:00.988Z,100034.25
2023-05-10T09:31:52.340Z,100044.53
2023-05-10T09:34:29.825Z,100059.47
2023-05-10T09:36:58.648Z,100058.06
2023-05-10T09:39:35.750Z,100064.06
2023-05-10T09:42:09.778Z,100069.34
2023-05-10T09:44:36.620Z,100066.84
2023-05-10T09:47:03.627Z,100059.66
2023-05-10T09:49:30.481Z,100061.09
2023-05-10T09:52:08.513Z,100065.84
2023-05-10T09:54:35.818Z,100054.13
2023-05-10T09:57:03.014Z,100056.44
2023-05-10T09:59:29.911Z,100045.28
2023-05-10T10:01:58.213Z,100054.97
2023-05-10T10:04:24.690Z,100053.28
2023-05-10T10:07:01.930Z,100047.88
2023-05-10T10:09:29.476Z,100060.34
2023-05-10T10:11:56.626Z,100056.88
2023-05-10T10:14:24.803Z,100059.28
2023-05-10T10:17:05.902Z,100061.47
2023-05-10T10:19:36.202Z,100063.41
2023-05-10T10:22:03.654Z,100055.44
2023-05-10T10:24:30.000Z,100054.72
2023-05-10T10:27:03.305Z,100048.09
2023-05-10T10:29:59.490Z,100057.31
2023-05-10T10:32:36.740Z,100063.97
2023-05-10T10:35:03.298Z,100058.13
2023-05-10T10:37:51.042Z,100059.63
2023-05-10T10:40:34.989Z,100070.47
2023-05-10T10:43:27.677Z,100073.88
2023-05-10T10:46:16.932Z,100066.00
2023-05-10T10:49:08.837Z,100064.22
2023-05-10T10:51:38.908Z,100064.31
2023-05-10T10:54:12.472Z,100064.91
2023-05-10T10:56:39.181Z,100068.03
2023-05-10T10:59:05.555Z,100065.91
2023-05-10T11:01:38.128Z,100063.38
2023-05-10T11:04:04.490Z,100076.28
2023-05-10T11:06:36.326Z,100072.53
2023-05-10T11:09:10.932Z,100076.94
2023-05-10T11:11:48.979Z,100074.44
2023-05-10T11:14:15.348Z,100080.72
2023-05-10T11:16:45.856Z,100071.22
2023-05-10T11:19:14.306Z,100067.28
2023-05-10T11:21:52.551Z,100062.78
2023-05-10T11:24:23.952Z,100060.63
2023-05-10T11:26:52.108Z,100061.00
2023-05-10T11:29:18.562Z,100069.66
2023-05-10T11:31:46.409Z,100057.84
2023-05-10T11:34:15.288Z,100063.50
2023-05-10T11:36:41.710Z,100066.03
2023-05-10T11:39:08.494Z,100074.88
2023-05-10T11:41:34.983Z,100061.88
2023-05-10T11:44:01.410Z,100067.38
2023-05-10T11:46:29.152Z,100077.72
2023-05-10T11:49:02.560Z,100076.97
2023-05-10T11:51:28.994Z,100081.91
2023-05-10T11:53:57.505Z,100056.13
2023-05-10T11:56:24.507Z,100071.59
2023-05-10T11:58:56.682Z,100070.88
2023-05-10T12:01:24.083Z,100061.63
2023-05-10T12:03:52.252Z,100071.41
2023-05-10T12:06:20.624Z,100067.16
2023-05-10T12:08:48.419Z,100075.66
2023-05-10T12:11:16.400Z,100081.31
2023-05-10T12:13:47.393Z,100085.41
2023-05-10T12:16:26.620Z,100090.97
2023-05-10T12:18:54.968Z,100099.81
2023-05-10T12:21:22.219Z,100092.94
2023-05-10T12:23:53.207Z,100097.41
2023-05-10T12:26:22.737Z,100099.78
2023-05-10T12:28:49.078Z,100095.44
2023-05-10T12:31:15.659Z,100090.34
2023-05-10T12:33:44.027Z,100112.13
2023-05-10T12:36:12.123Z,100112.72
2023-05-10T12:38:39.926Z,100105.63
2023-05-10T12:41:09.598Z,100114.66
2023-05-10T12:43:36.924Z,100117.59
2023-05-10T12:46:15.060Z,100115.47
2023-05-10T12:48:42.996Z,100121.97
2023-05-10T12:51:10.481Z,100112.75
2023-05-10T12:53:37.529Z,100121.50
2023-05-10T12:56:04.054Z,100124.44
2023-05-10T13:01:03.760Z,100132.78
2023-05-10T13:03:30.221Z,100135.41
2023-05-10T13:05:56.801Z,100127.47
2023-05-10T13:08:23.284Z,100127.03
2023-05-10T13:10:49.827Z,100125.44
2023-05-10T13:13:16.399Z,100128.72
2023-05-10T13:15:42.755Z,100120.84
2023-05-10T13:18:09.159Z,100116.06
2023-05-10T13:20:35.952Z,100118.13
2023-05-10T13:23:03.423Z,100128.19
2023-05-10T13:25:29.969Z,100128.25
2023-05-10T13:27:56.336Z,100120.94
2023-05-10T13:30:22.958Z,100119.44
2023-05-10T13:32:49.477Z,100120.09
2023-05-10T13:35:16.388Z,100122.97
2023-05-10T13:37:42.737Z,100113.56
2023-05-10T13:40:09.371Z,100108.97
2023-05-10T13:42:35.795Z,100122.00
2023-05-10T13:45:02.651Z,100115.91
2023-05-10T13:47:29.140Z,100111.63
2023-05-10T13:49:55.594Z,100105.03
2023-05-10T13:52:22.047Z,100103.88
2023-05-10T13:54:48.399Z,100105.59
2023-05-10T13:57:14.854Z,100106.16
2023-05-10T13:59:43.641Z,100110.44
2023-05-10T14:02:10.043Z,100106.03
2023-05-10T14:04:36.505Z,100105.47
2023-05-10T14:07:02.875Z,100104.47
2023-05-10T14:09:29.218Z,100113.09
2023-05-10T14:11:56.784Z,100097.31
2023-05-10T14:14:23.162Z,100095.25
2023-05-10T14:16:49.634Z,100094.59
2023-05-10T14:19:16.108Z,100086.00
2023-05-10T14:21:42.383Z,100089.94
2023-05-10T14:24:08.748Z,100092.03
2023-05-10T14:26:35.530Z,100096.72
2023-05-10T14:29:02.276Z,100095.81
2023-05-10T14:31:29.680Z,100090.81
2023-05-10T14:33:56.032Z,100089.38
2023-05-10T14:36:22.465Z,100089.16
2023-05-10T14:38:52.448Z,100093.09
2023-05-10T14:41:18.874Z,100087.13
2023-05-10T14:43:45.287Z,100082.25
2023-05-10T14:46:11.766Z,100081.66
2023-05-10T14:48:38.253Z,100081.38
2023-05-10T14:51:04.593Z,100082.06
2023-05-10T14:53:31.141Z,100080.34
2023-05-10T14:55:58.131Z,100078.25
2023-05-10T14:58:24.419Z,100080.84
2023-05-10T15:00:50.890Z,100075.94
2023-05-10T15:03:17.895Z,100081.50
2023-05-10T15:05:44.710Z,100083.31
2023-05-10T15:08:11.475Z,100079.31
2023-05-10T15:10:37.816Z,100080.91
2023-05-10T15:13:05.260Z,100082.03
2023-05-10T15:15:31.823Z,100075.44
2023-05-10T15:17:58.285Z,100066.22
2023-05-10T15:20:24.732Z,100067.06
2023-05-10T15:22:51.100Z,100066.47
2023-05-10T15:25:18.167Z,100067.94
2023-05-10T15:27:44.700Z,100070.28
2023-05-10T15:30:11.708Z,100077.50
2023-05-10T15:32:38.163Z,100075.84
2023-05-10T15:35:04.963Z,100069.00
2023-05-10T15:37:31.311Z,100079.75
2023-05-10T15:40:04.204Z,100080.09
2023-05-10T15:42:32.474Z,100080.50
2023-05-10T15:44:59.343Z,100085.81
2023-05-10T15:47:26.812Z,100089.03
2023-05-10T15:49:53.356Z,100092.34
2023-05-10T15:52:20.994Z,100095.03
2023-05-10T15:54:47.453Z,100084.94
2023-05-10T15:57:14.041Z,100080.38
2023-05-10T15:59:40.432Z,100089.25
2023-05-10T16:02:07.760Z,100090.97
2023-05-10T16:04:34.141Z,100096.63
2023-05-10T16:07:00.552Z,100100.69
2023-05-10T16:09:26.908Z,100091.00
2023-05-10T16:11:53.346Z,100093.09
2023-05-10T16:14:22.777Z,100094.19
2023-05-10T16:16:49.198Z,100098.38
2023-05-10T16:19:15.911Z,100100.66
2023-05-10T16:21:42.400Z,100100.22
2023-05-10T16:24:08.737Z,100105.13
2023-05-10T16:26:40.651Z,100108.53
2023-05-10T16:29:08.722Z,100097.78
2023-05-10T16:31:35.505Z,100097.13
2023-05-10T16:34:02.139Z,100103.31
2023-05-10T16:36:29.571Z,100095.28
2023-05-10T16:38:55.944Z,100107.63
2023-05-10T16:41:22.502Z,100100.44
2023-05-10T16:43:49.376Z,100104.78
2023-05-10T16:46:16.056Z,100102.56
2023-05-10T16:48:42.484Z,100096.31
2023-05-10T16:51:09.280Z,100110.28
2023-05-10T16:53:36.217Z,100114.94
2023-05-10T16:56:03.025Z,100108.88
2023-05-10T16:58:29.361Z,100108.44
2023-05-10T17:00:55.677Z,100116.59
2023-05-10T17:03:22.318Z,100109.22
2023-05-10T17:05:48.750Z,100115.44
2023-05-10T17:08:16.512Z,100115.84
2023-05-10T17:10:42.825Z,100117.75
2023-05-10T17:13:10.391Z,100113.28
2023-05-10T17:15:37.849Z,100115.09
2023-05-10T17:18:05.160Z,100119.25
2023-05-10T17:20:31.645Z,100112.25
2023-05-10T17:22:58.068Z,100124.31
2023-05-10T17:25:24.417Z,100123.34
2023-05-10T17:27:50.783Z,100123.38
2023-05-10T17:30:19.211Z,100111.84
2023-05-10T17:32:45.644Z,100118.16
2023-05-10T17:35:12.103Z,100111.78
2023-05-10T17:37:38.437Z,100133.81
2023-05-10T17:40:07.280Z,100131.53
2023-05-10T17:42:33.650Z,100124.81
2023-05-10T17:45:00.029Z,100133.44
2023-05-10T17:47:26.425Z,100127.59
2023-05-10T17:49:52.875Z,100131.31
2023-05-10T17:52:19.212Z,100128.84
2023-05-10T17:54:45.666Z,100123.75
2023-05-10T17:57:11.958Z,100134.44
2023-05-10T17:59:38.304Z,100130.00
2023-05-10T18:02:04.613Z,100134.63
2023-05-10T18:04:31.358Z,100136.38
2023-05-10T18:07:01.432Z,100137.38
2023-05-10T18:09:28.399Z,100140.50
2023-05-10T18:11:54.727Z,100143.34
2023-05-10T18:14:36.064Z,100140.88
2023-05-10T18:17:05.926Z,100127.94
2023-05-10T18:19:32.373Z,100143.94
2023-05-10T18:21:58.721Z,100135.16
2023-05-10T18:24:37.868Z,100149.50
2023-05-10T18:27:06.831Z,100152.25
2023-05-10T18:29:33.282Z,100147.03
2023-05-10T18:31:59.686Z,100142.69
2023-05-10T18:34:26.181Z,100156.19
2023-05-10T18:36:52.871Z,100145.75
2023-05-10T18:39:19.212Z,100145.09
2023-05-10T18:41:45.725Z,100157.91
2023-05-10T18:44:12.119Z,100143.97
2023-05-10T18:46:38.594Z,100146.09
2023-05-10T18:49:05.746Z,100157.97
2023-05-10T18:51:32.057Z,100151.09
2023-05-10T18:53:58.405Z,100153.03
2023-05-10T18:56:24.774Z,100154.16
2023-05-10T18:58:51.240Z,100154.22
2023-05-10T19:01:17.806Z,100163.25
2023-05-10T19:03:44.192Z,100172.16
2023-05-10T19:06:11.274Z,100161.53
2023-05-10T19:08:37.615Z,100177.53
2023-05-10T19:11:03.946Z,100174.94
2023-05-10T19:13:30.495Z,100181.16
2023-05-10T19:16:10.437Z,100186.53
2023-05-10T19:18:36.975Z,100187.25
2023-05-10T19:21:05.556Z,100200.53
2023-05-10T19:23:33.193Z,100204.16
2023-05-10T19:26:00.190Z,100205.97
2023-05-10T19:28:26.709Z,100196.28
2023-05-10T19:30:53.230Z,100198.19
2023-05-10T19:33:19.688Z,100197.38
2023-05-10T19:35:46.252Z,100201.06
2023-05-10T19:38:12.609Z,100206.50
2023-05-10T19:40:39.004Z,100209.34
2023-05-10T19:43:05.356Z,100218.28
2023-05-10T19:45:31.713Z,100228.13
2023-05-10T19:47:58.124Z,100230.84
2023-05-10T19:50:24.498Z,100228.22
2023-05-10T19:52:51.749Z,100230.03
2023-05-10T19:55:27.795Z,100225.59
2023-05-10T19:57:54.151Z,100233.56
2023-05-10T20:00:20.602Z,100228.28
2023-05-10T20:02:47.082Z,100228.28
2023-05-10T20:05:13.581Z,100228.25
2023-05-10T20:07:39.917Z,100229.13
2023-05-10T20:10:06.829Z,100232.72
2023-05-10T20:12:33.185Z,100230.06
2023-05-10T20:14:59.490Z,100237.16
2023-05-10T20:17:25.841Z,100231.84
2023-05-10T20:19:52.196Z,100237.09
2023-05-10T20:22:18.553Z,100231.78
2023-05-10T20:24:44.938Z,100227.34
2023-05-10T20:27:11.236Z,100230.84
2023-05-10T20:29:37.527Z,100235.28
2023-05-10T20:32:04.067Z,100234.38
2023-05-10T20:34:31.073Z,100237.91
2023-05-10T20:36:58.034Z,100244.09
2023-05-10T20:39:24.312Z,100237.84
2023-05-10T20:41:50.656Z,100230.72
2023-05-10T20:44:16.960Z,100246.63
2023-05-10T20:46:43.389Z,100238.66
2023-05-10T20:49:09.780Z,100245.72
2023-05-10T20:51:36.189Z,100242.19
2023-05-10T20:54:04.223Z,100241.31
2023-05-10T20:56:31.289Z,100238.66
2023-05-10T20:58:57.581Z,100236.91
2023-05-10T21:01:25.106Z,100237.78
2023-05-10T21:03:51.447Z,100244.00
2023-05-10T21:06:17.781Z,100237.00
2023-05-10T21:08:44.149Z,100235.13
2023-05-10T21:11:10.610Z,100236.00
2023-05-10T21:13:36.926Z,100239.50
2023-05-10T21:16:04.324Z,100240.31
2023-05-10T21:18:30.793Z,100240.28
2023-05-10T21:20:58.298Z,100237.59
2023-05-10T21:23:24.648Z,100233.16
2023-05-10T21:25:50.932Z,100229.56
2023-05-10T21:28:17.273Z,100229.53
2023-05-10T21:30:43.608Z,100225.09
2023-05-10T21:33:09.981Z,100234.78
2023-05-10T21:35:39.166Z,100235.66
2023-05-10T21:38:05.446Z,100229.47
2023-05-10T21:40:31.737Z,100231.16
2023-05-10T21:42:58.345Z,100233.84
2023-05-10T21:45:24.711Z,100231.16
2023-05-10T21:47:51.115Z,100228.50
2023-05-10T21:50:18.184Z,100236.47
2023-05-10T21:52:44.684Z,100230.19
2023-05-10T21:55:11.091Z,100222.13
2023-05-10T21:57:37.388Z,100228.22
2023-05-10T22:00:04.816Z,100231.66
2023-05-10T22:02:31.207Z,100223.63
2023-05-10T22:04:57.948Z,100222.00
2023-05-10T22:07:24.316Z,100230.72
2023-05-10T22:09:50.690Z,100233.28
2023-05-10T22:12:17.108Z,100227.00
2023-05-10T22:14:43.509Z,100228.75
2023-05-10T22:17:10.063Z,100230.41
2023-05-10T22:19:36.542Z,100235.66
2023-05-10T22:22:02.930Z,100224.94
2023-05-10T22:24:30.178Z,100230.19
2023-05-10T22:26:56.659Z,100224.81
2023-05-10T22:29:24.017Z,100232.72
2023-05-10T22:31:50.406Z,100236.22
2023-05-10T22:34:16.915Z,100237.28
2023-05-10T22:36:44.425Z,100235.72
2023-05-10T22:39:10.803Z,100235.75
2023-05-10T22:41:37.085Z,100228.75
2023-05-10T22:44:04.858Z,100238.38
2023-05-10T22:46:32.210Z,100238.28
2023-05-10T22:48:59.306Z,100239.06
2023-05-10T22:51:25.939Z,100242.66
2023-05-10T22:53:52.223Z,100248.91
2023-05-10T22:56:18.735Z,100252.47
2023-05-10T22:58:45.164Z,100251.59
2023-05-10T23:01:11.996Z,100245.31
2023-05-10T23:03:38.353Z,100258.47
2023-05-10T23:06:05.082Z,100259.22
2023-05-10T23:08:31.505Z,100251.22
2023-05-10T23:10:57.946Z,100261.88
2023-05-10T23:13:24.720Z,100253.88
2023-05-10T23:15:53.476Z,100261.75
2023-05-10T23:18:19.873Z,100258.16
2023-05-10T23:20:46.421Z,100265.25
2023-05-10T23:23:12.811Z,100266.06
2023-05-10T23:25:39.100Z,100266.19
2023-05-10T23:28:05.486Z,100274.00
2023-05-10T23:30:31.805Z,100266.84
2023-05-10T23:32:58.176Z,100269.34
2023-05-10T23:35:24.606Z,100271.88
2023-05-10T23:37:50.946Z,100269.25
2023-05-10T23:40:17.707Z,100261.19
2023-05-10T23:42:44.176Z,100272.66
2023-05-10T23:45:11.056Z,100267.28
2023-05-10T23:47:37.370Z,100268.97
2023-05-10T23:50:05.225Z,100261.00
2023-05-10T23:52:31.535Z,100257.66
2023-05-10T23:54:57.872Z,100254.16
2023-05-10T23:57:24.326Z,100263.06
2023-05-10T23:59:50.838Z,100268.44
